sensor_id;sensor_type;location;lat;lon;timestamp;P1;durP1;ratioP1;P2;durP2;ratioP2
74102;SDS011;62853;46.166;3.640;2023-12-22T00:02:09;6.13;;;1.58;;
74102;SDS011;62853;46.166;3.640;2023-12-22T00:04:34;13.25;;;2.28;;
74102;SDS011;62853;46.166;3.640;2023-12-22T00:07:00;6.88;;;1.58;;
74102;SDS011;62853;46.166;3.640;2023-12-22T00:09:25;9.32;;;1.70;;
74102;SDS011;62853;46.166;3.640;2023-12-22T00:11:50;6.32;;;1.55;;
74102;SDS011;62853;46.166;3.640;2023-12-22T00:14:16;9.88;;;2.13;;
74102;SDS011;62853;46.166;3.640;2023-12-22T00:16:41;9.85;;;2.33;;
74102;SDS011;62853;46.166;3.640;2023-12-22T00:19:07;5.32;;;1.48;;
74102;SDS011;62853;46.166;3.640;2023-12-22T00:21:32;9.50;;;2.15;;
74102;SDS011;62853;46.166;3.640;2023-12-22T00:23:58;6.68;;;2.42;;
74102;SDS011;62853;46.166;3.640;2023-12-22T00:26:23;9.15;;;1.98;;
74102;SDS011;62853;46.166;3.640;2023-12-22T00:28:48;8.55;;;2.15;;
74102;SDS011;62853;46.166;3.640;2023-12-22T00:31:14;9.13;;;2.17;;
74102;SDS011;62853;46.166;3.640;2023-12-22T00:33:39;9.13;;;1.75;;
74102;SDS011;62853;46.166;3.640;2023-12-22T00:36:04;9.70;;;2.00;;
74102;SDS011;62853;46.166;3.640;2023-12-22T00:38:30;7.20;;;1.42;;
74102;SDS011;62853;46.166;3.640;2023-12-22T00:40:56;10.00;;;1.70;;
74102;SDS011;62853;46.166;3.640;2023-12-22T00:43:21;8.52;;;2.17;;
74102;SDS011;62853;46.166;3.640;2023-12-22T00:45:47;7.10;;;1.60;;
74102;SDS011;62853;46.166;3.640;2023-12-22T00:48:12;9.40;;;1.95;;
74102;SDS011;62853;46.166;3.640;2023-12-22T00:50:37;9.50;;;1.88;;
74102;SDS011;62853;46.166;3.640;2023-12-22T00:53:03;8.07;;;1.83;;
74102;SDS011;62853;46.166;3.640;2023-12-22T00:55:28;7.32;;;1.55;;
74102;SDS011;62853;46.166;3.640;2023-12-22T00:57:54;10.15;;;2.00;;
74102;SDS011;62853;46.166;3.640;2023-12-22T01:00:19;10.20;;;1.95;;
74102;SDS011;62853;46.166;3.640;2023-12-22T01:02:44;7.22;;;1.23;;
74102;SDS011;62853;46.166;3.640;2023-12-22T01:05:10;7.60;;;1.60;;
74102;SDS011;62853;46.166;3.640;2023-12-22T01:07:35;7.70;;;1.42;;
74102;SDS011;62853;46.166;3.640;2023-12-22T01:10:01;7.22;;;1.77;;
74102;SDS011;62853;46.166;3.640;2023-12-22T01:12:30;9.43;;;1.80;;
74102;SDS011;62853;46.166;3.640;2023-12-22T01:14:56;11.05;;;1.75;;
74102;SDS011;62853;46.166;3.640;2023-12-22T01:17:22;9.48;;;1.90;;
74102;SDS011;62853;46.166;3.640;2023-12-22T01:19:47;7.00;;;1.33;;
74102;SDS011;62853;46.166;3.640;2023-12-22T01:22:13;6.82;;;1.55;;
74102;SDS011;62853;46.166;3.640;2023-12-22T01:24:38;9.00;;;2.13;;
74102;SDS011;62853;46.166;3.640;2023-12-22T01:27:07;8.23;;;1.80;;
74102;SDS011;62853;46.166;3.640;2023-12-22T01:29:33;8.13;;;1.73;;
74102;SDS011;62853;46.166;3.640;2023-12-22T01:31:58;11.23;;;2.00;;
74102;SDS011;62853;46.166;3.640;2023-12-22T01:34:24;11.73;;;2.42;;
74102;SDS011;62853;46.166;3.640;2023-12-22T01:36:49;6.35;;;1.40;;
74102;SDS011;62853;46.166;3.640;2023-12-22T01:39:15;6.10;;;1.23;;
74102;SDS011;62853;46.166;3.640;2023-12-22T01:41:40;8.52;;;1.33;;
74102;SDS011;62853;46.166;3.640;2023-12-22T01:44:06;7.00;;;1.73;;
74102;SDS011;62853;46.166;3.640;2023-12-22T01:46:31;8.32;;;1.90;;
74102;SDS011;62853;46.166;3.640;2023-12-22T01:48:58;7.47;;;1.80;;
74102;SDS011;62853;46.166;3.640;2023-12-22T01:51:26;5.82;;;1.42;;
74102;SDS011;62853;46.166;3.640;2023-12-22T01:53:52;9.05;;;1.75;;
74102;SDS011;62853;46.166;3.640;2023-12-22T01:56:18;7.45;;;1.88;;
74102;SDS011;62853;46.166;3.640;2023-12-22T01:58:43;6.68;;;1.85;;
74102;SDS011;62853;46.166;3.640;2023-12-22T02:01:09;7.63;;;1.80;;
74102;SDS011;62853;46.166;3.640;2023-12-22T02:03:35;7.55;;;1.45;;
74102;SDS011;62853;46.166;3.640;2023-12-22T02:06:01;5.72;;;1.65;;
74102;SDS011;62853;46.166;3.640;2023-12-22T02:08:27;8.05;;;1.48;;
74102;SDS011;62853;46.166;3.640;2023-12-22T02:10:56;10.73;;;2.05;;
74102;SDS011;62853;46.166;3.640;2023-12-22T02:13:21;9.63;;;1.80;;
74102;SDS011;62853;46.166;3.640;2023-12-22T02:15:47;9.52;;;1.65;;
74102;SDS011;62853;46.166;3.640;2023-12-22T02:18:21;5.18;;;1.70;;
74102;SDS011;62853;46.166;3.640;2023-12-22T02:20:51;7.82;;;2.00;;
74102;SDS011;62853;46.166;3.640;2023-12-22T02:23:17;9.10;;;1.60;;
74102;SDS011;62853;46.166;3.640;2023-12-22T02:25:43;6.50;;;1.70;;
74102;SDS011;62853;46.166;3.640;2023-12-22T02:28:09;6.75;;;1.60;;
74102;SDS011;62853;46.166;3.640;2023-12-22T02:33:18;7.10;;;1.95;;
74102;SDS011;62853;46.166;3.640;2023-12-22T02:35:47;9.00;;;2.38;;
74102;SDS011;62853;46.166;3.640;2023-12-22T02:38:15;5.93;;;1.40;;
74102;SDS011;62853;46.166;3.640;2023-12-22T02:40:41;7.13;;;1.85;;
74102;SDS011;62853;46.166;3.640;2023-12-22T02:43:07;8.05;;;1.65;;
74102;SDS011;62853;46.166;3.640;2023-12-22T02:45:33;10.02;;;1.85;;
74102;SDS011;62853;46.166;3.640;2023-12-22T02:47:59;8.20;;;1.67;;
74102;SDS011;62853;46.166;3.640;2023-12-22T02:50:26;8.55;;;2.00;;
74102;SDS011;62853;46.166;3.640;2023-12-22T02:52:51;9.30;;;2.22;;
74102;SDS011;62853;46.166;3.640;2023-12-22T02:55:16;10.23;;;2.20;;
74102;SDS011;62853;46.166;3.640;2023-12-22T02:57:42;5.68;;;1.40;;
74102;SDS011;62853;46.166;3.640;2023-12-22T03:00:07;7.68;;;1.67;;
74102;SDS011;62853;46.166;3.640;2023-12-22T03:02:33;8.38;;;1.80;;
74102;SDS011;62853;46.166;3.640;2023-12-22T03:04:58;6.38;;;1.90;;
74102;SDS011;62853;46.166;3.640;2023-12-22T03:07:24;6.10;;;1.70;;
74102;SDS011;62853;46.166;3.640;2023-12-22T03:09:49;7.70;;;1.73;;
74102;SDS011;62853;46.166;3.640;2023-12-22T03:12:15;13.23;;;2.45;;
74102;SDS011;62853;46.166;3.640;2023-12-22T03:14:40;9.70;;;1.98;;
74102;SDS011;62853;46.166;3.640;2023-12-22T03:17:06;7.22;;;1.85;;
74102;SDS011;62853;46.166;3.640;2023-12-22T03:19:32;7.93;;;1.70;;
74102;SDS011;62853;46.166;3.640;2023-12-22T03:21:57;6.28;;;1.55;;
74102;SDS011;62853;46.166;3.640;2023-12-22T03:24:24;5.07;;;1.60;;
74102;SDS011;62853;46.166;3.640;2023-12-22T03:26:49;6.38;;;2.28;;
74102;SDS011;62853;46.166;3.640;2023-12-22T03:29:15;11.35;;;2.30;;
74102;SDS011;62853;46.166;3.640;2023-12-22T03:31:41;12.32;;;2.53;;
74102;SDS011;62853;46.166;3.640;2023-12-22T03:34:07;8.65;;;1.42;;
74102;SDS011;62853;46.166;3.640;2023-12-22T03:36:32;9.90;;;1.88;;
74102;SDS011;62853;46.166;3.640;2023-12-22T03:38:58;9.27;;;1.80;;
74102;SDS011;62853;46.166;3.640;2023-12-22T03:41:23;9.13;;;2.00;;
74102;SDS011;62853;46.166;3.640;2023-12-22T03:43:49;10.25;;;2.13;;
74102;SDS011;62853;46.166;3.640;2023-12-22T03:46:14;7.60;;;1.83;;
74102;SDS011;62853;46.166;3.640;2023-12-22T03:48:40;8.82;;;1.73;;
74102;SDS011;62853;46.166;3.640;2023-12-22T03:51:05;9.50;;;1.73;;
74102;SDS011;62853;46.166;3.640;2023-12-22T03:53:30;7.10;;;1.73;;
74102;SDS011;62853;46.166;3.640;2023-12-22T03:55:56;9.30;;;1.60;;
74102;SDS011;62853;46.166;3.640;2023-12-22T03:58:21;6.00;;;1.98;;
74102;SDS011;62853;46.166;3.640;2023-12-22T04:00:47;5.63;;;1.55;;
74102;SDS011;62853;46.166;3.640;2023-12-22T04:03:12;10.10;;;1.70;;
74102;SDS011;62853;46.166;3.640;2023-12-22T04:05:38;9.30;;;1.85;;
74102;SDS011;62853;46.166;3.640;2023-12-22T04:08:04;9.13;;;1.77;;
74102;SDS011;62853;46.166;3.640;2023-12-22T04:10:30;8.48;;;1.60;;
74102;SDS011;62853;46.166;3.640;2023-12-22T04:12:55;5.97;;;1.35;;
74102;SDS011;62853;46.166;3.640;2023-12-22T04:15:20;9.60;;;1.80;;
74102;SDS011;62853;46.166;3.640;2023-12-22T04:17:46;8.13;;;1.83;;
74102;SDS011;62853;46.166;3.640;2023-12-22T04:20:11;7.90;;;2.28;;
74102;SDS011;62853;46.166;3.640;2023-12-22T04:22:38;7.20;;;1.60;;
74102;SDS011;62853;46.166;3.640;2023-12-22T04:25:03;8.20;;;1.80;;
74102;SDS011;62853;46.166;3.640;2023-12-22T04:27:29;8.60;;;1.67;;
74102;SDS011;62853;46.166;3.640;2023-12-22T04:29:54;6.90;;;1.50;;
74102;SDS011;62853;46.166;3.640;2023-12-22T04:32:20;7.93;;;1.90;;
74102;SDS011;62853;46.166;3.640;2023-12-22T04:34:45;7.95;;;1.58;;
74102;SDS011;62853;46.166;3.640;2023-12-22T04:37:10;7.72;;;1.60;;
74102;SDS011;62853;46.166;3.640;2023-12-22T04:39:36;6.32;;;1.58;;
74102;SDS011;62853;46.166;3.640;2023-12-22T04:42:01;7.97;;;1.65;;
74102;SDS011;62853;46.166;3.640;2023-12-22T04:44:26;9.70;;;1.75;;
74102;SDS011;62853;46.166;3.640;2023-12-22T04:46:52;6.72;;;1.50;;
74102;SDS011;62853;46.166;3.640;2023-12-22T04:49:17;8.63;;;2.08;;
74102;SDS011;62853;46.166;3.640;2023-12-22T04:51:43;8.35;;;1.65;;
74102;SDS011;62853;46.166;3.640;2023-12-22T04:54:08;9.32;;;1.85;;
74102;SDS011;62853;46.166;3.640;2023-12-22T04:56:34;8.70;;;2.00;;
74102;SDS011;62853;46.166;3.640;2023-12-22T04:58:59;5.95;;;1.42;;
74102;SDS011;62853;46.166;3.640;2023-12-22T05:01:25;8.43;;;1.75;;
74102;SDS011;62853;46.166;3.640;2023-12-22T05:03:50;6.38;;;1.60;;
74102;SDS011;62853;46.166;3.640;2023-12-22T05:06:16;8.85;;;1.70;;
74102;SDS011;62853;46.166;3.640;2023-12-22T05:08:41;5.72;;;1.55;;
74102;SDS011;62853;46.166;3.640;2023-12-22T05:11:07;8.35;;;1.85;;
74102;SDS011;62853;46.166;3.640;2023-12-22T05:13:32;10.13;;;1.77;;
74102;SDS011;62853;46.166;3.640;2023-12-22T05:15:57;5.43;;;1.58;;
74102;SDS011;62853;46.166;3.640;2023-12-22T05:18:23;9.07;;;1.73;;
74102;SDS011;62853;46.166;3.640;2023-12-22T05:20:49;10.07;;;2.80;;
74102;SDS011;62853;46.166;3.640;2023-12-22T05:23:15;8.48;;;2.30;;
74102;SDS011;62853;46.166;3.640;2023-12-22T05:25:41;10.43;;;2.03;;
74102;SDS011;62853;46.166;3.640;2023-12-22T05:28:06;8.80;;;2.22;;
74102;SDS011;62853;46.166;3.640;2023-12-22T05:30:31;9.68;;;2.33;;
74102;SDS011;62853;46.166;3.640;2023-12-22T05:32:57;11.27;;;2.05;;
74102;SDS011;62853;46.166;3.640;2023-12-22T05:35:22;8.93;;;2.10;;
74102;SDS011;62853;46.166;3.640;2023-12-22T05:37:47;8.98;;;2.35;;
74102;SDS011;62853;46.166;3.640;2023-12-22T05:40:13;7.40;;;2.45;;
74102;SDS011;62853;46.166;3.640;2023-12-22T05:42:39;11.77;;;2.15;;
74102;SDS011;62853;46.166;3.640;2023-12-22T05:45:04;9.82;;;2.35;;
74102;SDS011;62853;46.166;3.640;2023-12-22T05:47:31;10.45;;;2.50;;
74102;SDS011;62853;46.166;3.640;2023-12-22T05:49:57;8.65;;;2.15;;
74102;SDS011;62853;46.166;3.640;2023-12-22T05:52:22;10.75;;;2.00;;
74102;SDS011;62853;46.166;3.640;2023-12-22T05:54:48;9.77;;;2.50;;
74102;SDS011;62853;46.166;3.640;2023-12-22T05:57:13;11.55;;;2.78;;
74102;SDS011;62853;46.166;3.640;2023-12-22T05:59:38;11.80;;;2.35;;
74102;SDS011;62853;46.166;3.640;2023-12-22T06:02:04;14.05;;;3.45;;
74102;SDS011;62853;46.166;3.640;2023-12-22T06:04:29;9.13;;;2.72;;
74102;SDS011;62853;46.166;3.640;2023-12-22T06:06:55;7.60;;;2.20;;
74102;SDS011;62853;46.166;3.640;2023-12-22T06:09:20;10.30;;;2.28;;
74102;SDS011;62853;46.166;3.640;2023-12-22T06:11:47;11.70;;;2.42;;
74102;SDS011;62853;46.166;3.640;2023-12-22T06:14:12;13.70;;;2.90;;
74102;SDS011;62853;46.166;3.640;2023-12-22T06:16:38;9.52;;;2.20;;
74102;SDS011;62853;46.166;3.640;2023-12-22T06:19:03;12.88;;;2.75;;
74102;SDS011;62853;46.166;3.640;2023-12-22T06:21:29;12.32;;;2.80;;
74102;SDS011;62853;46.166;3.640;2023-12-22T06:23:54;13.73;;;2.75;;
74102;SDS011;62853;46.166;3.640;2023-12-22T06:26:20;12.80;;;3.17;;
74102;SDS011;62853;46.166;3.640;2023-12-22T06:28:45;13.43;;;3.17;;
74102;SDS011;62853;46.166;3.640;2023-12-22T06:31:17;14.27;;;2.80;;
74102;SDS011;62853;46.166;3.640;2023-12-22T06:33:44;11.82;;;2.45;;
74102;SDS011;62853;46.166;3.640;2023-12-22T06:38:45;16.05;;;2.78;;
74102;SDS011;62853;46.166;3.640;2023-12-22T06:43:46;11.25;;;2.60;;
74102;SDS011;62853;46.166;3.640;2023-12-22T06:46:15;12.95;;;2.72;;
74102;SDS011;62853;46.166;3.640;2023-12-22T06:48:41;15.10;;;3.67;;
74102;SDS011;62853;46.166;3.640;2023-12-22T06:51:07;9.25;;;2.70;;
74102;SDS011;62853;46.166;3.640;2023-12-22T06:53:32;13.25;;;3.22;;
74102;SDS011;62853;46.166;3.640;2023-12-22T06:55:57;17.38;;;3.00;;
74102;SDS011;62853;46.166;3.640;2023-12-22T06:58:23;13.68;;;3.55;;
74102;SDS011;62853;46.166;3.640;2023-12-22T07:00:50;13.20;;;3.10;;
74102;SDS011;62853;46.166;3.640;2023-12-22T07:03:16;17.98;;;3.17;;
74102;SDS011;62853;46.166;3.640;2023-12-22T07:05:42;13.95;;;3.35;;
74102;SDS011;62853;46.166;3.640;2023-12-22T07:08:08;11.95;;;2.90;;
74102;SDS011;62853;46.166;3.640;2023-12-22T07:10:33;18.77;;;3.88;;
74102;SDS011;62853;46.166;3.640;2023-12-22T07:12:59;17.05;;;3.13;;
74102;SDS011;62853;46.166;3.640;2023-12-22T07:15:24;17.10;;;3.88;;
74102;SDS011;62853;46.166;3.640;2023-12-22T07:17:49;16.42;;;3.90;;
74102;SDS011;62853;46.166;3.640;2023-12-22T07:20:15;17.85;;;3.20;;
74102;SDS011;62853;46.166;3.640;2023-12-22T07:22:40;18.33;;;3.38;;
74102;SDS011;62853;46.166;3.640;2023-12-22T07:25:06;13.82;;;3.33;;
74102;SDS011;62853;46.166;3.640;2023-12-22T07:27:32;18.25;;;3.72;;
74102;SDS011;62853;46.166;3.640;2023-12-22T07:29:57;16.65;;;3.25;;
74102;SDS011;62853;46.166;3.640;2023-12-22T07:32:23;11.90;;;2.92;;
74102;SDS011;62853;46.166;3.640;2023-12-22T07:34:49;15.68;;;3.20;;
74102;SDS011;62853;46.166;3.640;2023-12-22T07:37:14;19.58;;;3.60;;
74102;SDS011;62853;46.166;3.640;2023-12-22T07:39:39;16.20;;;2.92;;
74102;SDS011;62853;46.166;3.640;2023-12-22T07:42:06;16.60;;;3.30;;
74102;SDS011;62853;46.166;3.640;2023-12-22T07:44:32;16.02;;;3.85;;
74102;SDS011;62853;46.166;3.640;2023-12-22T07:46:57;17.13;;;3.92;;
74102;SDS011;62853;46.166;3.640;2023-12-22T07:49:24;12.80;;;3.20;;
74102;SDS011;62853;46.166;3.640;2023-12-22T07:51:50;21.33;;;4.28;;
74102;SDS011;62853;46.166;3.640;2023-12-22T07:54:17;17.92;;;3.60;;
74102;SDS011;62853;46.166;3.640;2023-12-22T07:56:42;12.45;;;3.28;;
74102;SDS011;62853;46.166;3.640;2023-12-22T07:59:08;18.33;;;3.38;;
74102;SDS011;62853;46.166;3.640;2023-12-22T08:01:33;19.27;;;3.70;;
74102;SDS011;62853;46.166;3.640;2023-12-22T08:03:58;15.05;;;3.72;;
74102;SDS011;62853;46.166;3.640;2023-12-22T08:06:24;14.90;;;3.28;;
74102;SDS011;62853;46.166;3.640;2023-12-22T08:08:49;18.23;;;3.28;;
74102;SDS011;62853;46.166;3.640;2023-12-22T08:11:14;13.32;;;3.60;;
74102;SDS011;62853;46.166;3.640;2023-12-22T08:13:40;18.70;;;3.85;;
74102;SDS011;62853;46.166;3.640;2023-12-22T08:16:05;15.38;;;3.35;;
74102;SDS011;62853;46.166;3.640;2023-12-22T08:18:31;12.50;;;2.90;;
74102;SDS011;62853;46.166;3.640;2023-12-22T08:20:56;14.05;;;3.58;;
74102;SDS011;62853;46.166;3.640;2023-12-22T08:23:22;14.68;;;2.67;;
74102;SDS011;62853;46.166;3.640;2023-12-22T08:25:47;12.30;;;2.92;;
74102;SDS011;62853;46.166;3.640;2023-12-22T08:28:13;13.98;;;2.90;;
74102;SDS011;62853;46.166;3.640;2023-12-22T08:30:38;10.48;;;3.28;;
74102;SDS011;62853;46.166;3.640;2023-12-22T08:33:04;11.63;;;3.13;;
74102;SDS011;62853;46.166;3.640;2023-12-22T08:35:29;10.98;;;2.75;;
74102;SDS011;62853;46.166;3.640;2023-12-22T08:37:55;15.57;;;2.65;;
74102;SDS011;62853;46.166;3.640;2023-12-22T08:40:21;16.13;;;3.15;;
74102;SDS011;62853;46.166;3.640;2023-12-22T08:42:51;14.55;;;3.47;;
74102;SDS011;62853;46.166;3.640;2023-12-22T08:45:24;11.13;;;2.45;;
74102;SDS011;62853;46.166;3.640;2023-12-22T08:47:51;12.40;;;2.67;;
74102;SDS011;62853;46.166;3.640;2023-12-22T08:50:16;9.38;;;2.25;;
74102;SDS011;62853;46.166;3.640;2023-12-22T08:52:41;10.02;;;2.45;;
74102;SDS011;62853;46.166;3.640;2023-12-22T08:55:07;8.73;;;2.33;;
74102;SDS011;62853;46.166;3.640;2023-12-22T08:57:32;9.82;;;2.97;;
74102;SDS011;62853;46.166;3.640;2023-12-22T08:59:58;11.10;;;2.58;;
74102;SDS011;62853;46.166;3.640;2023-12-22T09:02:23;10.85;;;2.15;;
74102;SDS011;62853;46.166;3.640;2023-12-22T09:04:48;10.00;;;1.88;;
74102;SDS011;62853;46.166;3.640;2023-12-22T09:07:14;9.77;;;1.90;;
74102;SDS011;62853;46.166;3.640;2023-12-22T09:09:40;9.98;;;2.17;;
74102;SDS011;62853;46.166;3.640;2023-12-22T09:12:05;7.35;;;1.73;;
74102;SDS011;62853;46.166;3.640;2023-12-22T09:14:31;9.38;;;1.80;;
74102;SDS011;62853;46.166;3.640;2023-12-22T09:16:56;7.82;;;2.08;;
74102;SDS011;62853;46.166;3.640;2023-12-22T09:19:22;13.30;;;2.58;;
74102;SDS011;62853;46.166;3.640;2023-12-22T09:21:47;7.10;;;1.70;;
74102;SDS011;62853;46.166;3.640;2023-12-22T09:24:13;8.38;;;2.03;;
74102;SDS011;62853;46.166;3.640;2023-12-22T09:26:39;6.88;;;1.63;;
74102;SDS011;62853;46.166;3.640;2023-12-22T09:29:05;5.88;;;1.40;;
74102;SDS011;62853;46.166;3.640;2023-12-22T09:31:30;7.25;;;1.60;;
74102;SDS011;62853;46.166;3.640;2023-12-22T09:33:57;6.63;;;1.75;;
74102;SDS011;62853;46.166;3.640;2023-12-22T09:36:23;5.25;;;1.60;;
74102;SDS011;62853;46.166;3.640;2023-12-22T09:38:48;5.63;;;1.33;;
74102;SDS011;62853;46.166;3.640;2023-12-22T09:41:13;5.65;;;1.38;;
74102;SDS011;62853;46.166;3.640;2023-12-22T09:43:40;5.05;;;1.55;;
74102;SDS011;62853;46.166;3.640;2023-12-22T09:46:07;7.70;;;1.98;;
74102;SDS011;62853;46.166;3.640;2023-12-22T09:48:34;5.28;;;1.20;;
74102;SDS011;62853;46.166;3.640;2023-12-22T09:51:04;2.95;;;1.02;;
74102;SDS011;62853;46.166;3.640;2023-12-22T09:53:31;5.65;;;1.58;;
74102;SDS011;62853;46.166;3.640;2023-12-22T09:55:58;5.72;;;1.90;;
74102;SDS011;62853;46.166;3.640;2023-12-22T09:58:25;5.07;;;1.20;;
74102;SDS011;62853;46.166;3.640;2023-12-22T10:00:50;6.30;;;1.30;;
74102;SDS011;62853;46.166;3.640;2023-12-22T10:03:17;4.57;;;1.17;;
74102;SDS011;62853;46.166;3.640;2023-12-22T10:05:45;4.50;;;1.25;;
74102;SDS011;62853;46.166;3.640;2023-12-22T10:08:11;4.10;;;1.20;;
74102;SDS011;62853;46.166;3.640;2023-12-22T10:10:38;5.78;;;1.23;;
74102;SDS011;62853;46.166;3.640;2023-12-22T10:13:13;4.60;;;1.08;;
74102;SDS011;62853;46.166;3.640;2023-12-22T10:15:40;4.88;;;1.27;;
74102;SDS011;62853;46.166;3.640;2023-12-22T10:18:06;4.03;;;0.95;;
74102;SDS011;62853;46.166;3.640;2023-12-22T10:20:32;3.60;;;1.05;;
74102;SDS011;62853;46.166;3.640;2023-12-22T10:22:58;3.45;;;0.68;;
74102;SDS011;62853;46.166;3.640;2023-12-22T10:25:27;2.75;;;1.02;;
74102;SDS011;62853;46.166;3.640;2023-12-22T10:27:54;3.72;;;0.88;;
74102;SDS011;62853;46.166;3.640;2023-12-22T10:30:20;2.70;;;0.75;;
74102;SDS011;62853;46.166;3.640;2023-12-22T10:32:46;4.22;;;1.20;;
74102;SDS011;62853;46.166;3.640;2023-12-22T10:35:11;2.75;;;0.75;;
74102;SDS011;62853;46.166;3.640;2023-12-22T10:37:37;4.05;;;0.80;;
74102;SDS011;62853;46.166;3.640;2023-12-22T10:40:06;4.47;;;1.02;;
74102;SDS011;62853;46.166;3.640;2023-12-22T10:42:34;4.93;;;1.45;;
74102;SDS011;62853;46.166;3.640;2023-12-22T10:45:01;6.00;;;0.93;;
74102;SDS011;62853;46.166;3.640;2023-12-22T10:47:27;3.65;;;0.70;;
74102;SDS011;62853;46.166;3.640;2023-12-22T10:49:54;5.40;;;1.00;;
74102;SDS011;62853;46.166;3.640;2023-12-22T10:52:19;3.08;;;0.80;;
74102;SDS011;62853;46.166;3.640;2023-12-22T10:54:45;3.80;;;0.70;;
74102;SDS011;62853;46.166;3.640;2023-12-22T10:57:13;6.78;;;1.40;;
74102;SDS011;62853;46.166;3.640;2023-12-22T10:59:44;2.60;;;0.90;;
74102;SDS011;62853;46.166;3.640;2023-12-22T11:02:13;3.03;;;0.80;;
74102;SDS011;62853;46.166;3.640;2023-12-22T11:04:41;2.28;;;0.80;;
74102;SDS011;62853;46.166;3.640;2023-12-22T11:07:29;6.25;;;1.63;;
74102;SDS011;62853;46.166;3.640;2023-12-22T11:09:59;1.88;;;0.70;;
74102;SDS011;62853;46.166;3.640;2023-12-22T11:12:28;4.00;;;0.95;;
74102;SDS011;62853;46.166;3.640;2023-12-22T11:14:56;1.33;;;0.60;;
74102;SDS011;62853;46.166;3.640;2023-12-22T11:17:23;5.80;;;0.98;;
74102;SDS011;62853;46.166;3.640;2023-12-22T11:19:49;3.72;;;0.65;;
74102;SDS011;62853;46.166;3.640;2023-12-22T11:22:16;1.17;;;0.43;;
74102;SDS011;62853;46.166;3.640;2023-12-22T11:24:46;3.80;;;0.80;;
74102;SDS011;62853;46.166;3.640;2023-12-22T11:27:13;1.95;;;0.80;;
74102;SDS011;62853;46.166;3.640;2023-12-22T11:29:42;2.85;;;1.20;;
74102;SDS011;62853;46.166;3.640;2023-12-22T11:32:10;4.85;;;0.98;;
74102;SDS011;62853;46.166;3.640;2023-12-22T11:34:37;2.88;;;0.70;;
74102;SDS011;62853;46.166;3.640;2023-12-22T11:37:04;2.50;;;0.73;;
74102;SDS011;62853;46.166;3.640;2023-12-22T11:39:31;3.33;;;0.80;;
74102;SDS011;62853;46.166;3.640;2023-12-22T11:41:57;6.47;;;1.02;;
74102;SDS011;62853;46.166;3.640;2023-12-22T11:44:22;2.75;;;1.00;;
74102;SDS011;62853;46.166;3.640;2023-12-22T11:46:48;2.92;;;0.70;;
74102;SDS011;62853;46.166;3.640;2023-12-22T11:49:14;3.05;;;0.70;;
74102;SDS011;62853;46.166;3.640;2023-12-22T11:51:39;3.72;;;0.90;;
74102;SDS011;62853;46.166;3.640;2023-12-22T11:54:24;2.67;;;0.60;;
74102;SDS011;62853;46.166;3.640;2023-12-22T11:57:43;2.40;;;0.90;;
74102;SDS011;62853;46.166;3.640;2023-12-22T12:00:03;3.08;;;0.75;;
74102;SDS011;62853;46.166;3.640;2023-12-22T12:02:35;3.33;;;0.80;;
74102;SDS011;62853;46.166;3.640;2023-12-22T12:05:02;2.42;;;0.98;;
74102;SDS011;62853;46.166;3.640;2023-12-22T12:07:42;4.43;;;0.93;;
74102;SDS011;62853;46.166;3.640;2023-12-22T12:10:10;5.03;;;1.08;;
74102;SDS011;62853;46.166;3.640;2023-12-22T12:13:08;3.47;;;0.80;;
74102;SDS011;62853;46.166;3.640;2023-12-22T12:15:34;3.83;;;0.93;;
74102;SDS011;62853;46.166;3.640;2023-12-22T12:18:00;2.45;;;0.60;;
74102;SDS011;62853;46.166;3.640;2023-12-22T12:20:26;3.03;;;0.80;;
74102;SDS011;62853;46.166;3.640;2023-12-22T12:22:53;2.95;;;0.85;;
74102;SDS011;62853;46.166;3.640;2023-12-22T12:25:21;3.28;;;0.82;;
74102;SDS011;62853;46.166;3.640;2023-12-22T12:28:00;4.35;;;0.98;;
74102;SDS011;62853;46.166;3.640;2023-12-22T12:30:27;3.33;;;0.60;;
74102;SDS011;62853;46.166;3.640;2023-12-22T12:32:52;1.52;;;0.60;;
74102;SDS011;62853;46.166;3.640;2023-12-22T12:35:19;2.45;;;0.85;;
74102;SDS011;62853;46.166;3.640;2023-12-22T12:37:44;2.00;;;0.65;;
74102;SDS011;62853;46.166;3.640;2023-12-22T12:40:13;3.28;;;1.45;;
74102;SDS011;62853;46.166;3.640;2023-12-22T12:42:42;3.58;;;0.95;;
74102;SDS011;62853;46.166;3.640;2023-12-22T12:45:08;2.78;;;0.98;;
74102;SDS011;62853;46.166;3.640;2023-12-22T12:47:34;4.28;;;1.55;;
74102;SDS011;62853;46.166;3.640;2023-12-22T12:49:59;3.00;;;1.30;;
74102;SDS011;62853;46.166;3.640;2023-12-22T12:52:26;3.13;;;0.82;;
74102;SDS011;62853;46.166;3.640;2023-12-22T12:54:51;4.30;;;0.90;;
74102;SDS011;62853;46.166;3.640;2023-12-22T12:57:17;2.38;;;0.60;;
74102;SDS011;62853;46.166;3.640;2023-12-22T12:59:49;3.35;;;1.40;;
74102;SDS011;62853;46.166;3.640;2023-12-22T13:02:16;2.38;;;1.00;;
74102;SDS011;62853;46.166;3.640;2023-12-22T13:04:42;2.58;;;0.68;;
74102;SDS011;62853;46.166;3.640;2023-12-22T13:07:08;2.42;;;0.75;;
74102;SDS011;62853;46.166;3.640;2023-12-22T13:09:35;5.25;;;0.85;;
74102;SDS011;62853;46.166;3.640;2023-12-22T13:12:01;2.42;;;0.70;;
74102;SDS011;62853;46.166;3.640;2023-12-22T13:14:28;4.10;;;0.90;;
74102;SDS011;62853;46.166;3.640;2023-12-22T13:16:53;3.03;;;0.90;;
74102;SDS011;62853;46.166;3.640;2023-12-22T13:19:21;3.65;;;0.90;;
74102;SDS011;62853;46.166;3.640;2023-12-22T13:21:49;3.95;;;1.30;;
74102;SDS011;62853;46.166;3.640;2023-12-22T13:24:15;4.55;;;1.05;;
74102;SDS011;62853;46.166;3.640;2023-12-22T13:26:41;7.85;;;1.67;;
74102;SDS011;62853;46.166;3.640;2023-12-22T13:29:08;4.78;;;1.50;;
74102;SDS011;62853;46.166;3.640;2023-12-22T13:31:41;2.88;;;1.60;;
74102;SDS011;62853;46.166;3.640;2023-12-22T13:34:10;3.55;;;0.77;;
74102;SDS011;62853;46.166;3.640;2023-12-22T13:36:39;4.47;;;1.00;;
74102;SDS011;62853;46.166;3.640;2023-12-22T13:39:07;5.05;;;1.10;;
74102;SDS011;62853;46.166;3.640;2023-12-22T13:41:34;3.00;;;0.80;;
74102;SDS011;62853;46.166;3.640;2023-12-22T13:44:03;3.55;;;1.10;;
74102;SDS011;62853;46.166;3.640;2023-12-22T13:46:29;4.32;;;1.40;;
74102;SDS011;62853;46.166;3.640;2023-12-22T13:48:55;2.80;;;0.70;;
74102;SDS011;62853;46.166;3.640;2023-12-22T13:51:22;5.15;;;1.00;;
74102;SDS011;62853;46.166;3.640;2023-12-22T13:53:48;2.42;;;0.80;;
74102;SDS011;62853;46.166;3.640;2023-12-22T13:56:14;3.03;;;0.90;;
74102;SDS011;62853;46.166;3.640;2023-12-22T13:58:46;3.83;;;1.13;;
74102;SDS011;62853;46.166;3.640;2023-12-22T14:01:12;3.63;;;0.87;;
74102;SDS011;62853;46.166;3.640;2023-12-22T14:03:40;4.50;;;1.02;;
74102;SDS011;62853;46.166;3.640;2023-12-22T14:06:06;3.38;;;0.90;;
74102;SDS011;62853;46.166;3.640;2023-12-22T14:08:34;4.65;;;0.90;;
74102;SDS011;62853;46.166;3.640;2023-12-22T14:10:59;4.75;;;1.10;;
74102;SDS011;62853;46.166;3.640;2023-12-22T14:13:25;2.92;;;1.10;;
74102;SDS011;62853;46.166;3.640;2023-12-22T14:15:52;4.03;;;1.10;;
74102;SDS011;62853;46.166;3.640;2023-12-22T14:18:18;2.70;;;0.90;;
74102;SDS011;62853;46.166;3.640;2023-12-22T14:20:43;2.83;;;0.75;;
74102;SDS011;62853;46.166;3.640;2023-12-22T14:23:10;2.88;;;0.80;;
74102;SDS011;62853;46.166;3.640;2023-12-22T14:25:41;2.70;;;0.82;;
74102;SDS011;62853;46.166;3.640;2023-12-22T14:28:07;3.65;;;0.85;;
74102;SDS011;62853;46.166;3.640;2023-12-22T14:30:33;3.28;;;0.77;;
74102;SDS011;62853;46.166;3.640;2023-12-22T14:32:59;3.78;;;1.02;;
74102;SDS011;62853;46.166;3.640;2023-12-22T14:35:24;2.55;;;0.73;;
74102;SDS011;62853;46.166;3.640;2023-12-22T14:37:50;4.03;;;0.85;;
74102;SDS011;62853;46.166;3.640;2023-12-22T14:40:15;4.03;;;1.08;;
74102;SDS011;62853;46.166;3.640;2023-12-22T14:42:41;4.00;;;0.90;;
74102;SDS011;62853;46.166;3.640;2023-12-22T14:45:06;3.80;;;1.08;;
74102;SDS011;62853;46.166;3.640;2023-12-22T14:47:32;5.03;;;0.93;;